sensor_id;sensor_type;location;lat;lon;timestamp;P1;durP1;ratioP1;P2;durP2;ratioP2
20988;SDS011;10653;47.052;15.410;2022-12-07T00:02:25;17.20;;;13.20;;
20988;SDS011;10653;47.052;15.410;2022-12-07T00:04:52;15.27;;;12.95;;
20988;SDS011;10653;47.052;15.410;2022-12-07T00:07:18;13.90;;;11.67;;
20988;SDS011;10653;47.052;15.410;2022-12-07T00:09:44;16.40;;;13.87;;
20988;SDS011;10653;47.052;15.410;2022-12-07T00:12:10;15.80;;;13.53;;
20988;SDS011;10653;47.052;15.410;2022-12-07T00:14:36;15.07;;;12.43;;
20988;SDS011;10653;47.052;15.410;2022-12-07T00:17:02;18.57;;;13.90;;
20988;SDS011;10653;47.052;15.410;2022-12-07T00:19:28;16.53;;;12.83;;
20988;SDS011;10653;47.052;15.410;2022-12-07T00:21:54;16.33;;;12.87;;
20988;SDS011;10653;47.052;15.410;2022-12-07T00:24:20;19.20;;;14.83;;
20988;SDS011;10653;47.052;15.410;2022-12-07T00:26:46;19.70;;;14.90;;
20988;SDS011;10653;47.052;15.410;2022-12-07T00:29:17;19.77;;;15.45;;
20988;SDS011;10653;47.052;15.410;2022-12-07T00:31:43;16.75;;;14.20;;
20988;SDS011;10653;47.052;15.410;2022-12-07T00:34:16;20.38;;;16.50;;
20988;SDS011;10653;47.052;15.410;2022-12-07T00:36:43;20.17;;;15.57;;
20988;SDS011;10653;47.052;15.410;2022-12-07T00:39:09;20.02;;;14.75;;
20988;SDS011;10653;47.052;15.410;2022-12-07T00:41:35;23.13;;;15.38;;
20988;SDS011;10653;47.052;15.410;2022-12-07T00:44:01;18.50;;;15.88;;
20988;SDS011;10653;47.052;15.410;2022-12-07T00:46:28;17.45;;;14.77;;
20988;SDS011;10653;47.052;15.410;2022-12-07T00:48:54;17.38;;;13.98;;
20988;SDS011;10653;47.052;15.410;2022-12-07T00:51:22;21.83;;;16.40;;
20988;SDS011;10653;47.052;15.410;2022-12-07T00:53:48;18.02;;;15.45;;
20988;SDS011;10653;47.052;15.410;2022-12-07T00:56:16;19.77;;;16.58;;
20988;SDS011;10653;47.052;15.410;2022-12-07T00:58:42;22.08;;;16.25;;
20988;SDS011;10653;47.052;15.410;2022-12-07T01:01:09;19.88;;;16.40;;
20988;SDS011;10653;47.052;15.410;2022-12-07T01:03:35;20.73;;;16.80;;
20988;SDS011;10653;47.052;15.410;2022-12-07T01:06:01;18.20;;;16.05;;
20988;SDS011;10653;47.052;15.410;2022-12-07T01:08:27;22.58;;;17.27;;
20988;SDS011;10653;47.052;15.410;2022-12-07T01:11:00;21.33;;;17.65;;
20988;SDS011;10653;47.052;15.410;2022-12-07T01:13:26;19.48;;;16.00;;
20988;SDS011;10653;47.052;15.410;2022-12-07T01:15:55;19.17;;;16.55;;
20988;SDS011;10653;47.052;15.410;2022-12-07T01:18:22;19.23;;;16.95;;
20988;SDS011;10653;47.052;15.410;2022-12-07T01:20:56;19.53;;;16.70;;
20988;SDS011;10653;47.052;15.410;2022-12-07T01:23:22;21.63;;;16.20;;
20988;SDS011;10653;47.052;15.410;2022-12-07T01:25:53;22.20;;;15.93;;
20988;SDS011;10653;47.052;15.410;2022-12-07T01:28:19;22.58;;;16.50;;
20988;SDS011;10653;47.052;15.410;2022-12-07T01:30:54;22.93;;;16.93;;
20988;SDS011;10653;47.052;15.410;2022-12-07T01:33:20;20.70;;;18.25;;
20988;SDS011;10653;47.052;15.410;2022-12-07T01:35:45;20.33;;;18.10;;
20988;SDS011;10653;47.052;15.410;2022-12-07T01:38:11;21.20;;;16.53;;
20988;SDS011;10653;47.052;15.410;2022-12-07T01:40:37;21.73;;;17.07;;
20988;SDS011;10653;47.052;15.410;2022-12-07T01:43:07;19.70;;;15.70;;
20988;SDS011;10653;47.052;15.410;2022-12-07T01:45:38;20.02;;;14.98;;
20988;SDS011;10653;47.052;15.410;2022-12-07T01:48:04;18.08;;;15.52;;
20988;SDS011;10653;47.052;15.410;2022-12-07T01:50:31;19.88;;;15.57;;
20988;SDS011;10653;47.052;15.410;2022-12-07T01:52:57;23.55;;;16.48;;
20988;SDS011;10653;47.052;15.410;2022-12-07T01:55:24;18.08;;;15.18;;
20988;SDS011;10653;47.052;15.410;2022-12-07T01:57:51;22.23;;;16.60;;
20988;SDS011;10653;47.052;15.410;2022-12-07T02:00:18;22.17;;;17.50;;
20988;SDS011;10653;47.052;15.410;2022-12-07T02:02:55;24.63;;;17.63;;
20988;SDS011;10653;47.052;15.410;2022-12-07T02:05:22;36.20;;;17.15;;
20988;SDS011;10653;47.052;15.410;2022-12-07T02:07:48;21.95;;;15.40;;
20988;SDS011;10653;47.052;15.410;2022-12-07T02:10:19;21.58;;;17.20;;
20988;SDS011;10653;47.052;15.410;2022-12-07T02:12:46;44.83;;;18.38;;
20988;SDS011;10653;47.052;15.410;2022-12-07T02:15:13;34.75;;;16.48;;
20988;SDS011;10653;47.052;15.410;2022-12-07T02:20:11;29.93;;;16.40;;
20988;SDS011;10653;47.052;15.410;2022-12-07T02:25:13;19.77;;;14.95;;
20988;SDS011;10653;47.052;15.410;2022-12-07T02:27:48;27.30;;;16.73;;
20988;SDS011;10653;47.052;15.410;2022-12-07T02:30:20;23.83;;;15.48;;
20988;SDS011;10653;47.052;15.410;2022-12-07T02:35:17;20.70;;;15.50;;
20988;SDS011;10653;47.052;15.410;2022-12-07T02:37:47;21.00;;;14.13;;
20988;SDS011;10653;47.052;15.410;2022-12-07T02:40:20;18.42;;;15.98;;
20988;SDS011;10653;47.052;15.410;2022-12-07T02:42:51;19.92;;;16.00;;
20988;SDS011;10653;47.052;15.410;2022-12-07T02:45:20;21.20;;;15.70;;
20988;SDS011;10653;47.052;15.410;2022-12-07T02:47:47;16.60;;;13.68;;
20988;SDS011;10653;47.052;15.410;2022-12-07T02:50:14;17.45;;;12.50;;
20988;SDS011;10653;47.052;15.410;2022-12-07T02:52:43;16.60;;;12.93;;
20988;SDS011;10653;47.052;15.410;2022-12-07T02:55:09;16.70;;;14.13;;
20988;SDS011;10653;47.052;15.410;2022-12-07T03:00:20;15.05;;;12.55;;
20988;SDS011;10653;47.052;15.410;2022-12-07T03:13:14;16.13;;;10.93;;
20988;SDS011;10653;47.052;15.410;2022-12-07T03:15:46;15.93;;;11.73;;
20988;SDS011;10653;47.052;15.410;2022-12-07T03:18:16;48.88;;;15.70;;
20988;SDS011;10653;47.052;15.410;2022-12-07T03:20:44;29.40;;;12.55;;
20988;SDS011;10653;47.052;15.410;2022-12-07T03:23:12;17.67;;;11.85;;
20988;SDS011;10653;47.052;15.410;2022-12-07T03:25:39;13.57;;;10.98;;
20988;SDS011;10653;47.052;15.410;2022-12-07T03:28:05;16.10;;;13.35;;
20988;SDS011;10653;47.052;15.410;2022-12-07T03:30:35;14.93;;;11.45;;
20988;SDS011;10653;47.052;15.410;2022-12-07T03:33:07;21.45;;;12.57;;
20988;SDS011;10653;47.052;15.410;2022-12-07T03:35:36;15.27;;;12.25;;
20988;SDS011;10653;47.052;15.410;2022-12-07T03:38:10;25.75;;;13.50;;
20988;SDS011;10653;47.052;15.410;2022-12-07T03:40:40;23.67;;;13.05;;
20988;SDS011;10653;47.052;15.410;2022-12-07T03:43:09;45.25;;;14.55;;
20988;SDS011;10653;47.052;15.410;2022-12-07T03:45:39;15.65;;;13.20;;
20988;SDS011;10653;47.052;15.410;2022-12-07T03:48:41;18.13;;;12.45;;
20988;SDS011;10653;47.052;15.410;2022-12-07T03:53:38;24.48;;;13.60;;
20988;SDS011;10653;47.052;15.410;2022-12-07T03:56:06;30.63;;;13.40;;
20988;SDS011;10653;47.052;15.410;2022-12-07T03:58:32;28.98;;;13.48;;
20988;SDS011;10653;47.052;15.410;2022-12-07T04:00:59;20.25;;;14.27;;
20988;SDS011;10653;47.052;15.410;2022-12-07T04:03:25;14.10;;;12.45;;
20988;SDS011;10653;47.052;15.410;2022-12-07T04:05:51;14.73;;;11.50;;
20988;SDS011;10653;47.052;15.410;2022-12-07T04:08:17;14.57;;;12.13;;
20988;SDS011;10653;47.052;15.410;2022-12-07T04:10:43;17.33;;;12.17;;
20988;SDS011;10653;47.052;15.410;2022-12-07T04:13:09;17.00;;;12.70;;
20988;SDS011;10653;47.052;15.410;2022-12-07T04:15:35;20.03;;;12.00;;
20988;SDS011;10653;47.052;15.410;2022-12-07T04:18:01;25.20;;;13.30;;
20988;SDS011;10653;47.052;15.410;2022-12-07T04:20:27;20.02;;;12.70;;
20988;SDS011;10653;47.052;15.410;2022-12-07T04:22:53;16.30;;;13.45;;
20988;SDS011;10653;47.052;15.410;2022-12-07T04:25:19;18.87;;;14.30;;
20988;SDS011;10653;47.052;15.410;2022-12-07T04:27:45;28.33;;;14.30;;
20988;SDS011;10653;47.052;15.410;2022-12-07T04:30:11;31.75;;;14.48;;
20988;SDS011;10653;47.052;15.410;2022-12-07T04:32:37;20.42;;;13.73;;
20988;SDS011;10653;47.052;15.410;2022-12-07T04:35:03;21.97;;;13.50;;
20988;SDS011;10653;47.052;15.410;2022-12-07T04:37:29;19.52;;;13.80;;
20988;SDS011;10653;47.052;15.410;2022-12-07T04:39:55;30.37;;;14.37;;
20988;SDS011;10653;47.052;15.410;2022-12-07T04:42:21;16.10;;;12.17;;
20988;SDS011;10653;47.052;15.410;2022-12-07T04:44:47;34.20;;;15.20;;
20988;SDS011;10653;47.052;15.410;2022-12-07T04:47:13;34.90;;;14.07;;
20988;SDS011;10653;47.052;15.410;2022-12-07T04:49:39;18.57;;;13.50;;
20988;SDS011;10653;47.052;15.410;2022-12-07T04:52:05;21.90;;;13.90;;
20988;SDS011;10653;47.052;15.410;2022-12-07T04:54:31;24.65;;;13.75;;
20988;SDS011;10653;47.052;15.410;2022-12-07T04:56:57;38.92;;;15.57;;
20988;SDS011;10653;47.052;15.410;2022-12-07T04:59:23;21.80;;;14.60;;
20988;SDS011;10653;47.052;15.410;2022-12-07T05:01:49;17.73;;;13.07;;
20988;SDS011;10653;47.052;15.410;2022-12-07T05:04:15;18.52;;;13.25;;
20988;SDS011;10653;47.052;15.410;2022-12-07T05:06:42;26.15;;;15.55;;
20988;SDS011;10653;47.052;15.410;2022-12-07T05:09:08;27.08;;;14.63;;
20988;SDS011;10653;47.052;15.410;2022-12-07T05:11:34;28.80;;;15.80;;
20988;SDS011;10653;47.052;15.410;2022-12-07T05:14:05;18.27;;;13.10;;
20988;SDS011;10653;47.052;15.410;2022-12-07T05:16:31;28.35;;;15.88;;
20988;SDS011;10653;47.052;15.410;2022-12-07T05:18:57;22.30;;;15.05;;
20988;SDS011;10653;47.052;15.410;2022-12-07T05:21:24;19.65;;;13.57;;
20988;SDS011;10653;47.052;15.410;2022-12-07T05:23:50;19.00;;;14.63;;
20988;SDS011;10653;47.052;15.410;2022-12-07T05:26:16;23.85;;;14.80;;
20988;SDS011;10653;47.052;15.410;2022-12-07T05:28:42;22.83;;;15.40;;
20988;SDS011;10653;47.052;15.410;2022-12-07T05:31:08;22.83;;;15.75;;
20988;SDS011;10653;47.052;15.410;2022-12-07T05:33:34;19.80;;;14.80;;
20988;SDS011;10653;47.052;15.410;2022-12-07T05:36:00;22.20;;;13.27;;
20988;SDS011;10653;47.052;15.410;2022-12-07T05:38:30;22.30;;;14.85;;
20988;SDS011;10653;47.052;15.410;2022-12-07T05:40:59;43.25;;;16.30;;
20988;SDS011;10653;47.052;15.410;2022-12-07T05:43:26;19.48;;;13.85;;
20988;SDS011;10653;47.052;15.410;2022-12-07T05:45:52;30.70;;;16.87;;
20988;SDS011;10653;47.052;15.410;2022-12-07T05:48:18;18.02;;;14.07;;
20988;SDS011;10653;47.052;15.410;2022-12-07T05:50:47;22.33;;;16.20;;
20988;SDS011;10653;47.052;15.410;2022-12-07T05:53:13;27.95;;;15.13;;
20988;SDS011;10653;47.052;15.410;2022-12-07T05:55:39;32.90;;;14.50;;
20988;SDS011;10653;47.052;15.410;2022-12-07T05:58:05;23.03;;;14.97;;
20988;SDS011;10653;47.052;15.410;2022-12-07T06:00:49;46.55;;;15.55;;
20988;SDS011;10653;47.052;15.410;2022-12-07T06:03:15;27.33;;;14.88;;
20988;SDS011;10653;47.052;15.410;2022-12-07T06:05:42;24.03;;;13.27;;
20988;SDS011;10653;47.052;15.410;2022-12-07T06:08:08;23.83;;;13.75;;
20988;SDS011;10653;47.052;15.410;2022-12-07T06:10:34;36.17;;;15.33;;
20988;SDS011;10653;47.052;15.410;2022-12-07T06:13:00;34.63;;;17.03;;
20988;SDS011;10653;47.052;15.410;2022-12-07T06:15:25;19.63;;;14.10;;
20988;SDS011;10653;47.052;15.410;2022-12-07T06:17:51;17.87;;;14.77;;
20988;SDS011;10653;47.052;15.410;2022-12-07T06:20:17;44.47;;;19.83;;
20988;SDS011;10653;47.052;15.410;2022-12-07T06:22:43;34.15;;;16.40;;
20988;SDS011;10653;47.052;15.410;2022-12-07T06:25:09;24.80;;;16.30;;
20988;SDS011;10653;47.052;15.410;2022-12-07T06:27:35;20.77;;;15.02;;
20988;SDS011;10653;47.052;15.410;2022-12-07T06:30:02;33.53;;;19.77;;
20988;SDS011;10653;47.052;15.410;2022-12-07T06:32:31;25.85;;;15.60;;
20988;SDS011;10653;47.052;15.410;2022-12-07T06:34:58;27.50;;;17.95;;
20988;SDS011;10653;47.052;15.410;2022-12-07T06:37:23;35.38;;;18.40;;
20988;SDS011;10653;47.052;15.410;2022-12-07T06:39:49;52.00;;;20.10;;
20988;SDS011;10653;47.052;15.410;2022-12-07T06:42:15;30.70;;;17.47;;
20988;SDS011;10653;47.052;15.410;2022-12-07T06:44:41;40.73;;;19.23;;
20988;SDS011;10653;47.052;15.410;2022-12-07T06:47:07;50.63;;;20.50;;
20988;SDS011;10653;47.052;15.410;2022-12-07T06:49:34;48.67;;;19.42;;
20988;SDS011;10653;47.052;15.410;2022-12-07T06:52:00;33.78;;;18.02;;
20988;SDS011;10653;47.052;15.410;2022-12-07T06:54:26;36.42;;;19.83;;
20988;SDS011;10653;47.052;15.410;2022-12-07T06:56:55;52.50;;;21.20;;
20988;SDS011;10653;47.052;15.410;2022-12-07T06:59:21;47.22;;;19.88;;
20988;SDS011;10653;47.052;15.410;2022-12-07T07:01:47;25.15;;;17.55;;
20988;SDS011;10653;47.052;15.410;2022-12-07T07:04:13;31.80;;;17.00;;
20988;SDS011;10653;47.052;15.410;2022-12-07T07:06:39;42.63;;;19.85;;
20988;SDS011;10653;47.052;15.410;2022-12-07T07:09:06;32.30;;;19.58;;
20988;SDS011;10653;47.052;15.410;2022-12-07T07:11:32;30.83;;;17.65;;
20988;SDS011;10653;47.052;15.410;2022-12-07T07:13:58;29.13;;;16.87;;
20988;SDS011;10653;47.052;15.410;2022-12-07T07:16:27;39.30;;;18.80;;
20988;SDS011;10653;47.052;15.410;2022-12-07T07:18:53;44.00;;;19.42;;
20988;SDS011;10653;47.052;15.410;2022-12-07T07:21:19;37.20;;;19.43;;
20988;SDS011;10653;47.052;15.410;2022-12-07T07:23:45;38.20;;;18.80;;
20988;SDS011;10653;47.052;15.410;2022-12-07T07:26:11;36.00;;;17.93;;
20988;SDS011;10653;47.052;15.410;2022-12-07T07:28:38;42.78;;;21.67;;
20988;SDS011;10653;47.052;15.410;2022-12-07T07:31:04;36.78;;;18.40;;
20988;SDS011;10653;47.052;15.410;2022-12-07T07:33:30;29.70;;;18.38;;
20988;SDS011;10653;47.052;15.410;2022-12-07T07:35:56;27.27;;;17.00;;
20988;SDS011;10653;47.052;15.410;2022-12-07T07:38:22;35.95;;;20.98;;
20988;SDS011;10653;47.052;15.410;2022-12-07T07:40:48;38.25;;;19.55;;
20988;SDS011;10653;47.052;15.410;2022-12-07T07:43:14;38.88;;;21.65;;
20988;SDS011;10653;47.052;15.410;2022-12-07T07:45:40;35.00;;;21.33;;
20988;SDS011;10653;47.052;15.410;2022-12-07T07:48:06;38.42;;;21.00;;
20988;SDS011;10653;47.052;15.410;2022-12-07T07:50:32;28.50;;;18.30;;
20988;SDS011;10653;47.052;15.410;2022-12-07T07:52:58;38.73;;;18.57;;
20988;SDS011;10653;47.052;15.410;2022-12-07T07:55:24;22.73;;;18.10;;
20988;SDS011;10653;47.052;15.410;2022-12-07T07:57:50;30.95;;;18.83;;
20988;SDS011;10653;47.052;15.410;2022-12-07T08:00:16;30.52;;;18.23;;
20988;SDS011;10653;47.052;15.410;2022-12-07T08:02:42;28.52;;;17.60;;
20988;SDS011;10653;47.052;15.410;2022-12-07T08:05:10;30.50;;;19.50;;
20988;SDS011;10653;47.052;15.410;2022-12-07T08:07:36;25.00;;;18.42;;
20988;SDS011;10653;47.052;15.410;2022-12-07T08:10:02;31.40;;;16.42;;
20988;SDS011;10653;47.052;15.410;2022-12-07T08:12:29;28.67;;;18.95;;
20988;SDS011;10653;47.052;15.410;2022-12-07T08:14:55;29.07;;;20.23;;
20988;SDS011;10653;47.052;15.410;2022-12-07T08:17:21;26.90;;;19.10;;
20988;SDS011;10653;47.052;15.410;2022-12-07T08:19:47;24.90;;;18.95;;
20988;SDS011;10653;47.052;15.410;2022-12-07T08:22:13;27.53;;;18.27;;
20988;SDS011;10653;47.052;15.410;2022-12-07T08:24:39;27.23;;;19.70;;
20988;SDS011;10653;47.052;15.410;2022-12-07T08:27:05;26.17;;;19.88;;
20988;SDS011;10653;47.052;15.410;2022-12-07T08:29:31;28.73;;;19.80;;
20988;SDS011;10653;47.052;15.410;2022-12-07T08:31:57;24.88;;;17.75;;
20988;SDS011;10653;47.052;15.410;2022-12-07T08:34:23;24.40;;;18.60;;
20988;SDS011;10653;47.052;15.410;2022-12-07T08:36:49;28.47;;;20.77;;
20988;SDS011;10653;47.052;15.410;2022-12-07T08:39:15;28.95;;;21.55;;
20988;SDS011;10653;47.052;15.410;2022-12-07T08:41:41;31.80;;;22.47;;
20988;SDS011;10653;47.052;15.410;2022-12-07T08:44:07;26.95;;;20.45;;
20988;SDS011;10653;47.052;15.410;2022-12-07T08:46:50;30.48;;;20.35;;
20988;SDS011;10653;47.052;15.410;2022-12-07T08:49:19;27.40;;;19.65;;
20988;SDS011;10653;47.052;15.410;2022-12-07T08:51:45;27.33;;;20.30;;
20988;SDS011;10653;47.052;15.410;2022-12-07T08:54:13;26.75;;;19.27;;
20988;SDS011;10653;47.052;15.410;2022-12-07T08:56:40;30.33;;;20.77;;
20988;SDS011;10653;47.052;15.410;2022-12-07T08:59:06;27.75;;;21.05;;
20988;SDS011;10653;47.052;15.410;2022-12-07T09:01:32;30.20;;;21.70;;
20988;SDS011;10653;47.052;15.410;2022-12-07T09:03:58;29.27;;;21.20;;
20988;SDS011;10653;47.052;15.410;2022-12-07T09:06:25;30.33;;;21.53;;
20988;SDS011;10653;47.052;15.410;2022-12-07T09:08:51;28.55;;;22.55;;
20988;SDS011;10653;47.052;15.410;2022-12-07T09:11:19;33.25;;;22.70;;
20988;SDS011;10653;47.052;15.410;2022-12-07T09:13:45;30.00;;;22.37;;
20988;SDS011;10653;47.052;15.410;2022-12-07T09:16:11;32.67;;;22.30;;
20988;SDS011;10653;47.052;15.410;2022-12-07T09:18:37;25.98;;;20.50;;
20988;SDS011;10653;47.052;15.410;2022-12-07T09:21:04;27.83;;;18.92;;
20988;SDS011;10653;47.052;15.410;2022-12-07T09:23:30;29.38;;;20.45;;
20988;SDS011;10653;47.052;15.410;2022-12-07T09:26:00;27.80;;;19.77;;
20988;SDS011;10653;47.052;15.410;2022-12-07T09:28:26;30.88;;;22.17;;
20988;SDS011;10653;47.052;15.410;2022-12-07T09:30:52;30.27;;;23.45;;
20988;SDS011;10653;47.052;15.410;2022-12-07T09:33:18;28.30;;;22.15;;
20988;SDS011;10653;47.052;15.410;2022-12-07T09:35:46;34.55;;;23.15;;
20988;SDS011;10653;47.052;15.410;2022-12-07T09:38:12;28.52;;;21.15;;
20988;SDS011;10653;47.052;15.410;2022-12-07T09:40:39;29.00;;;21.40;;
20988;SDS011;10653;47.052;15.410;2022-12-07T09:43:11;31.52;;;21.98;;
20988;SDS011;10653;47.052;15.410;2022-12-07T09:45:37;25.10;;;19.30;;
20988;SDS011;10653;47.052;15.410;2022-12-07T09:48:04;27.08;;;20.05;;
20988;SDS011;10653;47.052;15.410;2022-12-07T09:50:30;24.67;;;18.90;;
20988;SDS011;10653;47.052;15.410;2022-12-07T09:53:10;21.67;;;17.33;;
20988;SDS011;10653;47.052;15.410;2022-12-07T09:55:39;26.90;;;19.35;;
20988;SDS011;10653;47.052;15.410;2022-12-07T09:58:08;23.70;;;17.20;;
20988;SDS011;10653;47.052;15.410;2022-12-07T10:00:34;23.55;;;19.05;;
20988;SDS011;10653;47.052;15.410;2022-12-07T10:03:01;26.15;;;16.70;;
20988;SDS011;10653;47.052;15.410;2022-12-07T10:05:32;24.73;;;17.48;;
20988;SDS011;10653;47.052;15.410;2022-12-07T10:08:00;21.77;;;16.35;;
20988;SDS011;10653;47.052;15.410;2022-12-07T10:10:29;25.08;;;17.25;;
20988;SDS011;10653;47.052;15.410;2022-12-07T10:13:03;27.55;;;19.08;;
20988;SDS011;10653;47.052;15.410;2022-12-07T10:20:44;21.75;;;17.90;;
20988;SDS011;10653;47.052;15.410;2022-12-07T10:23:17;21.10;;;17.10;;
20988;SDS011;10653;47.052;15.410;2022-12-07T10:25:44;22.90;;;18.20;;
20988;SDS011;10653;47.052;15.410;2022-12-07T10:35:55;26.17;;;18.02;;
20988;SDS011;10653;47.052;15.410;2022-12-07T10:38:26;31.38;;;20.65;;
20988;SDS011;10653;47.052;15.410;2022-12-07T10:41:13;27.45;;;20.75;;
20988;SDS011;10653;47.052;15.410;2022-12-07T10:43:46;26.20;;;18.90;;
20988;SDS011;10653;47.052;15.410;2022-12-07T10:46:20;26.80;;;18.47;;
20988;SDS011;10653;47.052;15.410;2022-12-07T10:56:49;25.30;;;18.60;;
20988;SDS011;10653;47.052;15.410;2022-12-07T11:02:15;21.60;;;17.30;;
20988;SDS011;10653;47.052;15.410;2022-12-07T11:04:38;21.37;;;16.20;;
20988;SDS011;10653;47.052;15.410;2022-12-07T11:07:14;31.23;;;18.27;;
20988;SDS011;10653;47.052;15.410;2022-12-07T11:12:10;23.83;;;17.10;;
20988;SDS011;10653;47.052;15.410;2022-12-07T11:25:31;21.77;;;17.13;;
20988;SDS011;10653;47.052;15.410;2022-12-07T11:30:28;23.83;;;17.50;;
20988;SDS011;10653;47.052;15.410;2022-12-07T11:35:55;29.40;;;16.27;;
20988;SDS011;10653;47.052;15.410;2022-12-07T11:38:23;22.83;;;15.90;;
20988;SDS011;10653;47.052;15.410;2022-12-07T11:40:51;22.97;;;15.90;;
20988;SDS011;10653;47.052;15.410;2022-12-07T11:43:29;23.93;;;16.23;;
20988;SDS011;10653;47.052;15.410;2022-12-07T11:46:08;22.70;;;17.03;;
20988;SDS011;10653;47.052;15.410;2022-12-07T11:51:12;20.23;;;15.67;;
20988;SDS011;10653;47.052;15.410;2022-12-07T12:01:11;24.10;;;16.77;;
20988;SDS011;10653;47.052;15.410;2022-12-07T12:03:38;30.07;;;21.07;;
20988;SDS011;10653;47.052;15.410;2022-12-07T12:06:06;26.17;;;19.03;;
20988;SDS011;10653;47.052;15.410;2022-12-07T12:08:33;27.53;;;19.70;;
20988;SDS011;10653;47.052;15.410;2022-12-07T12:16:21;23.77;;;16.57;;
20988;SDS011;10653;47.052;15.410;2022-12-07T12:21:28;25.07;;;16.63;;
20988;SDS011;10653;47.052;15.410;2022-12-07T12:24:05;22.50;;;16.07;;
20988;SDS011;10653;47.052;15.410;2022-12-07T12:26:35;22.63;;;17.07;;
20988;SDS011;10653;47.052;15.410;2022-12-07T12:29:06;23.63;;;16.50;;
20988;SDS011;10653;47.052;15.410;2022-12-07T12:31:40;23.00;;;15.13;;
20988;SDS011;10653;47.052;15.410;2022-12-07T12:36:51;23.27;;;15.50;;
20988;SDS011;10653;47.052;15.410;2022-12-07T12:39:17;27.57;;;15.40;;
20988;SDS011;10653;47.052;15.410;2022-12-07T12:51:42;21.63;;;15.97;;
20988;SDS011;10653;47.052;15.410;2022-12-07T12:56:43;23.90;;;15.37;;
20988;SDS011;10653;47.052;15.410;2022-12-07T13:01:48;22.03;;;15.57;;
20988;SDS011;10653;47.052;15.410;2022-12-07T13:04:25;21.57;;;15.53;;
20988;SDS011;10653;47.052;15.410;2022-12-07T13:06:52;19.60;;;14.47;;
20988;SDS011;10653;47.052;15.410;2022-12-07T13:09:22;20.30;;;14.60;;
20988;SDS011;10653;47.052;15.410;2022-12-07T13:11:49;25.23;;;18.00;;
20988;SDS011;10653;47.052;15.410;2022-12-07T13:17:07;25.37;;;16.23;;
20988;SDS011;10653;47.052;15.410;2022-12-07T13:27:24;21.93;;;16.00;;
20988;SDS011;10653;47.052;15.410;2022-12-07T13:29:51;24.27;;;17.37;;
20988;SDS011;10653;47.052;15.410;2022-12-07T13:32:23;28.30;;;17.93;;
20988;SDS011;10653;47.052;15.410;2022-12-07T13:34:49;20.93;;;16.57;;
20988;SDS011;10653;47.052;15.410;2022-12-07T13:39:49;26.80;;;16.97;;
20988;SDS011;10653;47.052;15.410;2022-12-07T13:42:25;25.00;;;17.03;;
20988;SDS011;10653;47.052;15.410;2022-12-07T13:44:52;30.37;;;16.90;;
20988;SDS011;10653;47.052;15.410;2022-12-07T13:47:25;25.53;;;17.60;;
20988;SDS011;10653;47.052;15.410;2022-12-07T13:49:54;25.63;;;18.43;;
20988;SDS011;10653;47.052;15.410;2022-12-07T13:57:13;30.63;;;19.93;;
20988;SDS011;10653;47.052;15.410;2022-12-07T13:59:40;23.00;;;16.67;;
20988;SDS011;10653;47.052;15.410;2022-12-07T14:04:48;23.30;;;15.20;;
20988;SDS011;10653;47.052;15.410;2022-12-07T14:07:25;21.97;;;16.07;;
20988;SDS011;10653;47.052;15.410;2022-12-07T14:12:41;25.47;;;18.50;;
20988;SDS011;10653;47.052;15.410;2022-12-07T14:15:15;23.73;;;17.10;;
20988;SDS011;10653;47.052;15.410;2022-12-07T14:17:51;29.40;;;16.37;;
20988;SDS011;10653;47.052;15.410;2022-12-07T14:20:34;25.77;;;16.53;;
20988;SDS011;10653;47.052;15.410;2022-12-07T14:23:01;21.20;;;16.10;;
20988;SDS011;10653;47.052;15.410;2022-12-07T14:25:44;23.80;;;15.57;;
20988;SDS011;10653;47.052;15.410;2022-12-07T14:28:24;19.13;;;16.10;;
20988;SDS011;10653;47.052;15.410;2022-12-07T14:30:50;25.43;;;17.03;;
20988;SDS011;10653;47.052;15.410;2022-12-07T14:33:22;20.73;;;15.70;;
20988;SDS011;10653;47.052;15.410;2022-12-07T14:35:49;22.73;;;16.63;;
20988;SDS011;10653;47.052;15.410;2022-12-07T14:38:20;22.00;;;16.73;;
20988;SDS011;10653;47.052;15.410;2022-12-07T14:40:46;38.80;;;18.20;;
20988;SDS011;10653;47.052;15.410;2022-12-07T14:43:12;25.53;;;17.07;;
20988;SDS011;10653;47.052;15.410;2022-12-07T14:45:40;21.13;;;17.57;;
20988;SDS011;10653;47.052;15.410;2022-12-07T14:48:07;26.08;;;17.60;;
20988;SDS011;10653;47.052;15.410;2022-12-07T14:50:37;26.77;;;18.83;;
20988;SDS011;10653;47.052;15.410;2022-12-07T14:53:06;22.30;;;17.73;;
20988;SDS011;10653;47.052;15.410;2022-12-07T14:55:35;26.20;;;18.30;;
20988;SDS011;10653;47.052;15.410;2022-12-07T14:58:01;23.67;;;19.25;;
20988;SDS011;10653;47.052;15.410;2022-12-07T15:00:28;25.13;;;18.00;;
20988;SDS011;10653;47.052;15.410;2022-12-07T15:02:54;25.60;;;17.63;;
20988;SDS011;10653;47.052;15.410;2022-12-07T15:05:20;23.83;;;18.52;;
20988;SDS011;10653;47.052;15.410;2022-12-07T15:07:47;24.40;;;18.60;;
20988;SDS011;10653;47.052;15.410;2022-12-07T15:10:21;26.58;;;18.13;;
20988;SDS011;10653;47.052;15.410;2022-12-07T15:12:47;24.40;;;18.23;;
20988;SDS011;10653;47.052;15.410;2022-12-07T15:15:13;25.15;;;18.33;;
20988;SDS011;10653;47.052;15.410;2022-12-07T15:17:40;26.67;;;18.67;;
20988;SDS011;10653;47.052;15.410;2022-12-07T15:20:08;22.48;;;16.98;;
20988;SDS011;10653;47.052;15.410;2022-12-07T15:22:36;25.10;;;20.02;;
20988;SDS011;10653;47.052;15.410;2022-12-07T15:25:02;21.05;;;17.65;;
20988;SDS011;10653;47.052;15.410;2022-12-07T15:27:30;22.30;;;18.17;;
20988;SDS011;10653;47.052;15.410;2022-12-07T15:29:56;25.20;;;18.88;;
20988;SDS011;10653;47.052;15.410;2022-12-07T15:32:22;22.97;;;19.03;;
20988;SDS011;10653;47.052;15.410;2022-12-07T15:34:48;23.50;;;20.05;;
20988;SDS011;10653;47.052;15.410;2022-12-07T15:37:15;23.10;;;19.58;;
20988;SDS011;10653;47.052;15.410;2022-12-07T15:39:41;23.07;;;19.97;;
20988;SDS011;10653;47.052;15.410;2022-12-07T15:42:07;24.10;;;19.13;;
20988;SDS011;10653;47.052;15.410;2022-12-07T15:44:33;25.02;;;20.65;;
20988;SDS011;10653;47.052;15.410;2022-12-07T15:47:17;24.48;;;20.02;;
20988;SDS011;10653;47.052;15.410;2022-12-07T15:49:44;24.60;;;20.23;;
20988;SDS011;10653;47.052;15.410;2022-12-07T15:52:10;25.48;;;21.85;;
20988;SDS011;10653;47.052;15.410;2022-12-07T15:54:36;25.97;;;21.50;;
20988;SDS011;10653;47.052;15.410;2022-12-07T15:57:02;24.30;;;19.80;;
20988;SDS011;10653;47.052;15.410;2022-12-07T15:59:28;33.40;;;26.90;;
20988;SDS011;10653;47.052;15.410;2022-12-07T16:01:54;26.00;;;20.30;;
20988;SDS011;10653;47.052;15.410;2022-12-07T16:04:20;30.92;;;22.23;;
20988;SDS011;10653;47.052;15.410;2022-12-07T16:06:46;26.92;;;18.80;;
20988;SDS011;10653;47.052;15.410;2022-12-07T16:09:13;29.43;;;19.40;;
20988;SDS011;10653;47.052;15.410;2022-12-07T16:11:39;20.57;;;18.37;;
20988;SDS011;10653;47.052;15.410;2022-12-07T16:14:05;20.37;;;16.87;;
20988;SDS011;10653;47.052;15.410;2022-12-07T16:16:31;22.92;;;18.48;;
20988;SDS011;10653;47.052;15.410;2022-12-07T16:18:57;18.93;;;16.43;;